sensor_id;sensor_type;location;lat;lon;timestamp;temperature;humidity
31837;DHT22;18401;49.344;6.240;2023-04-29T00:01:21;10.60;99.90
31837;DHT22;18401;49.344;6.240;2023-04-29T00:03:48;10.60;99.90
31837;DHT22;18401;49.344;6.240;2023-04-29T00:06:13;10.50;99.90
31837;DHT22;18401;49.344;6.240;2023-04-29T00:08:39;10.30;99.90
31837;DHT22;18401;49.344;6.240;2023-04-29T00:11:05;10.10;99.90
31837;DHT22;18401;49.344;6.240;2023-04-29T00:13:30;9.90;99.90
31837;DHT22;18401;49.344;6.240;2023-04-29T00:15:56;9.80;99.90
31837;DHT22;18401;49.344;6.240;2023-04-29T00:18:21;9.70;99.90
31837;DHT22;18401;49.344;6.240;2023-04-29T00:20:47;9.70;99.90
31837;DHT22;18401;49.344;6.240;2023-04-29T00:23:13;9.80;99.90
31837;DHT22;18401;49.344;6.240;2023-04-29T00:25:38;9.80;99.90
31837;DHT22;18401;49.344;6.240;2023-04-29T00:28:06;9.80;99.90
31837;DHT22;18401;49.344;6.240;2023-04-29T00:30:32;9.80;99.90
31837;DHT22;18401;49.344;6.240;2023-04-29T00:32:58;9.80;99.90
31837;DHT22;18401;49.344;6.240;2023-04-29T00:35:24;9.60;99.90
31837;DHT22;18401;49.344;6.240;2023-04-29T00:37:50;9.40;99.90
31837;DHT22;18401;49.344;6.240;2023-04-29T00:40:15;9.20;99.90
31837;DHT22;18401;49.344;6.240;2023-04-29T00:42:41;9.10;99.90
31837;DHT22;18401;49.344;6.240;2023-04-29T00:45:07;8.90;99.90
31837;DHT22;18401;49.344;6.240;2023-04-29T00:47:33;8.90;99.90
31837;DHT22;18401;49.344;6.240;2023-04-29T00:49:59;8.90;99.90
31837;DHT22;18401;49.344;6.240;2023-04-29T00:52:25;8.80;99.90
31837;DHT22;18401;49.344;6.240;2023-04-29T00:54:51;8.60;99.90
31837;DHT22;18401;49.344;6.240;2023-04-29T00:57:18;8.50;99.90
31837;DHT22;18401;49.344;6.240;2023-04-29T00:59:44;8.50;99.90
31837;DHT22;18401;49.344;6.240;2023-04-29T01:02:10;8.80;99.90
31837;DHT22;18401;49.344;6.240;2023-04-29T01:04:36;8.90;99.90
31837;DHT22;18401;49.344;6.240;2023-04-29T01:07:18;8.90;99.90
31837;DHT22;18401;49.344;6.240;2023-04-29T01:12:20;9.10;99.90
31837;DHT22;18401;49.344;6.240;2023-04-29T01:15:40;9.20;99.90
31837;DHT22;18401;49.344;6.240;2023-04-29T01:17:36;9.00;99.90
31837;DHT22;18401;49.344;6.240;2023-04-29T01:20:02;8.90;99.90
31837;DHT22;18401;49.344;6.240;2023-04-29T01:22:28;8.90;99.90
31837;DHT22;18401;49.344;6.240;2023-04-29T01:24:54;9.00;99.90
31837;DHT22;18401;49.344;6.240;2023-04-29T01:27:22;9.00;99.90
31837;DHT22;18401;49.344;6.240;2023-04-29T01:29:58;8.90;99.90
31837;DHT22;18401;49.344;6.240;2023-04-29T01:32:28;8.90;99.90
31837;DHT22;18401;49.344;6.240;2023-04-29T01:34:59;8.90;99.90
31837;DHT22;18401;49.344;6.240;2023-04-29T01:37:40;8.80;99.90
31837;DHT22;18401;49.344;6.240;2023-04-29T01:40:19;9.00;99.90
31837;DHT22;18401;49.344;6.240;2023-04-29T01:43:03;8.80;99.90
31837;DHT22;18401;49.344;6.240;2023-04-29T01:45:30;8.80;99.90
31837;DHT22;18401;49.344;6.240;2023-04-29T01:47:56;8.80;99.90
31837;DHT22;18401;49.344;6.240;2023-04-29T01:50:23;9.00;99.90
31837;DHT22;18401;49.344;6.240;2023-04-29T01:52:49;9.20;99.90
31837;DHT22;18401;49.344;6.240;2023-04-29T01:55:14;9.50;99.90
31837;DHT22;18401;49.344;6.240;2023-04-29T01:57:40;9.70;99.90
31837;DHT22;18401;49.344;6.240;2023-04-29T02:00:06;9.60;99.90
31837;DHT22;18401;49.344;6.240;2023-04-29T02:02:33;9.60;99.90
31837;DHT22;18401;49.344;6.240;2023-04-29T02:04:58;9.60;99.90
31837;DHT22;18401;49.344;6.240;2023-04-29T02:07:24;9.50;99.90
31837;DHT22;18401;49.344;6.240;2023-04-29T02:09:50;9.70;99.90
31837;DHT22;18401;49.344;6.240;2023-04-29T02:12:15;9.50;99.90
31837;DHT22;18401;49.344;6.240;2023-04-29T02:14:41;9.30;99.90
31837;DHT22;18401;49.344;6.240;2023-04-29T02:17:06;9.20;99.90
31837;DHT22;18401;49.344;6.240;2023-04-29T02:19:32;9.00;99.90
31837;DHT22;18401;49.344;6.240;2023-04-29T02:21:57;8.90;99.90
31837;DHT22;18401;49.344;6.240;2023-04-29T02:24:23;8.80;99.90
31837;DHT22;18401;49.344;6.240;2023-04-29T02:26:48;8.70;99.90
31837;DHT22;18401;49.344;6.240;2023-04-29T02:29:14;8.50;99.90
31837;DHT22;18401;49.344;6.240;2023-04-29T02:31:39;8.40;99.90
31837;DHT22;18401;49.344;6.240;2023-04-29T02:34:05;8.30;99.90
31837;DHT22;18401;49.344;6.240;2023-04-29T02:36:31;8.30;99.90
31837;DHT22;18401;49.344;6.240;2023-04-29T02:38:56;8.50;99.90
31837;DHT22;18401;49.344;6.240;2023-04-29T02:41:22;8.60;99.90
31837;DHT22;18401;49.344;6.240;2023-04-29T02:43:47;8.70;99.90
31837;DHT22;18401;49.344;6.240;2023-04-29T02:46:13;8.80;99.90
31837;DHT22;18401;49.344;6.240;2023-04-29T02:48:39;8.90;99.90
31837;DHT22;18401;49.344;6.240;2023-04-29T02:51:05;8.90;99.90
31837;DHT22;18401;49.344;6.240;2023-04-29T02:53:31;8.80;99.90
31837;DHT22;18401;49.344;6.240;2023-04-29T02:55:57;8.80;99.90
31837;DHT22;18401;49.344;6.240;2023-04-29T02:58:22;8.50;99.90
31837;DHT22;18401;49.344;6.240;2023-04-29T03:00:48;8.30;99.90
31837;DHT22;18401;49.344;6.240;2023-04-29T03:03:14;8.20;99.90
31837;DHT22;18401;49.344;6.240;2023-04-29T03:05:39;8.10;99.90
31837;DHT22;18401;49.344;6.240;2023-04-29T03:08:05;8.20;99.90
31837;DHT22;18401;49.344;6.240;2023-04-29T03:10:31;8.30;99.90
31837;DHT22;18401;49.344;6.240;2023-04-29T03:12:57;8.40;99.90
31837;DHT22;18401;49.344;6.240;2023-04-29T03:15:23;8.50;99.90
31837;DHT22;18401;49.344;6.240;2023-04-29T03:17:48;8.50;99.90
31837;DHT22;18401;49.344;6.240;2023-04-29T03:20:14;8.80;99.90
31837;DHT22;18401;49.344;6.240;2023-04-29T03:22:39;9.00;99.90
31837;DHT22;18401;49.344;6.240;2023-04-29T03:25:05;9.20;99.90
31837;DHT22;18401;49.344;6.240;2023-04-29T03:27:31;9.30;99.90
31837;DHT22;18401;49.344;6.240;2023-04-29T03:29:56;9.30;99.90
31837;DHT22;18401;49.344;6.240;2023-04-29T03:32:22;9.40;99.90
31837;DHT22;18401;49.344;6.240;2023-04-29T03:34:48;9.50;99.90
31837;DHT22;18401;49.344;6.240;2023-04-29T03:37:14;9.60;99.90
31837;DHT22;18401;49.344;6.240;2023-04-29T03:39:40;9.70;99.90
31837;DHT22;18401;49.344;6.240;2023-04-29T03:42:06;9.70;99.90
31837;DHT22;18401;49.344;6.240;2023-04-29T03:44:32;9.80;99.90
31837;DHT22;18401;49.344;6.240;2023-04-29T03:46:57;9.80;99.90
31837;DHT22;18401;49.344;6.240;2023-04-29T03:49:23;9.70;99.90
31837;DHT22;18401;49.344;6.240;2023-04-29T03:51:49;9.70;99.90
31837;DHT22;18401;49.344;6.240;2023-04-29T03:54:14;9.70;99.90
31837;DHT22;18401;49.344;6.240;2023-04-29T03:56:40;9.80;99.90
31837;DHT22;18401;49.344;6.240;2023-04-29T03:59:05;9.80;99.90
31837;DHT22;18401;49.344;6.240;2023-04-29T04:01:31;9.90;99.90
31837;DHT22;18401;49.344;6.240;2023-04-29T04:03:57;9.90;99.90
31837;DHT22;18401;49.344;6.240;2023-04-29T04:06:23;10.00;99.90
31837;DHT22;18401;49.344;6.240;2023-04-29T04:08:48;10.00;99.90
31837;DHT22;18401;49.344;6.240;2023-04-29T04:11:14;10.10;99.90
31837;DHT22;18401;49.344;6.240;2023-04-29T04:13:40;10.10;99.90
31837;DHT22;18401;49.344;6.240;2023-04-29T04:16:08;10.10;99.90
31837;DHT22;18401;49.344;6.240;2023-04-29T04:18:34;10.10;99.90
31837;DHT22;18401;49.344;6.240;2023-04-29T04:21:04;10.20;99.90
31837;DHT22;18401;49.344;6.240;2023-04-29T04:23:29;10.20;99.90
31837;DHT22;18401;49.344;6.240;2023-04-29T04:25:55;10.30;99.90
31837;DHT22;18401;49.344;6.240;2023-04-29T04:28:20;10.30;99.90
31837;DHT22;18401;49.344;6.240;2023-04-29T04:30:46;10.40;99.90
31837;DHT22;18401;49.344;6.240;2023-04-29T04:33:12;10.40;99.90
31837;DHT22;18401;49.344;6.240;2023-04-29T04:35:37;10.40;99.90
31837;DHT22;18401;49.344;6.240;2023-04-29T04:38:04;10.40;99.90
31837;DHT22;18401;49.344;6.240;2023-04-29T04:40:29;10.50;99.90
31837;DHT22;18401;49.344;6.240;2023-04-29T04:42:55;10.50;99.90
31837;DHT22;18401;49.344;6.240;2023-04-29T04:45:21;10.50;99.90
31837;DHT22;18401;49.344;6.240;2023-04-29T04:47:46;10.50;99.90
31837;DHT22;18401;49.344;6.240;2023-04-29T04:50:12;10.60;99.90
31837;DHT22;18401;49.344;6.240;2023-04-29T04:52:37;10.50;99.90
31837;DHT22;18401;49.344;6.240;2023-04-29T04:55:03;10.60;99.90
31837;DHT22;18401;49.344;6.240;2023-04-29T04:57:29;10.60;99.90
31837;DHT22;18401;49.344;6.240;2023-04-29T04:59:54;10.60;99.90
31837;DHT22;18401;49.344;6.240;2023-04-29T05:02:20;10.70;99.90
31837;DHT22;18401;49.344;6.240;2023-04-29T05:04:46;10.80;99.90
31837;DHT22;18401;49.344;6.240;2023-04-29T05:07:11;10.80;99.90
31837;DHT22;18401;49.344;6.240;2023-04-29T05:09:37;10.80;99.90
31837;DHT22;18401;49.344;6.240;2023-04-29T05:12:02;10.80;99.90
31837;DHT22;18401;49.344;6.240;2023-04-29T05:14:28;10.80;99.90
31837;DHT22;18401;49.344;6.240;2023-04-29T05:16:59;10.80;99.90
31837;DHT22;18401;49.344;6.240;2023-04-29T05:19:25;10.80;99.90
31837;DHT22;18401;49.344;6.240;2023-04-29T05:21:51;10.80;99.90
31837;DHT22;18401;49.344;6.240;2023-04-29T05:24:17;10.90;99.90
31837;DHT22;18401;49.344;6.240;2023-04-29T05:26:42;10.90;99.90
31837;DHT22;18401;49.344;6.240;2023-04-29T05:29:09;10.90;99.90
31837;DHT22;18401;49.344;6.240;2023-04-29T05:31:34;10.90;99.90
31837;DHT22;18401;49.344;6.240;2023-04-29T05:34:00;11.00;99.90
31837;DHT22;18401;49.344;6.240;2023-04-29T05:36:26;11.10;99.90
31837;DHT22;18401;49.344;6.240;2023-04-29T05:38:52;11.10;99.90
31837;DHT22;18401;49.344;6.240;2023-04-29T05:41:17;11.10;99.90
31837;DHT22;18401;49.344;6.240;2023-04-29T05:43:43;11.10;99.90
31837;DHT22;18401;49.344;6.240;2023-04-29T05:46:08;11.10;99.90
31837;DHT22;18401;49.344;6.240;2023-04-29T05:48:34;11.10;99.90
31837;DHT22;18401;49.344;6.240;2023-04-29T05:51:00;11.10;99.90
31837;DHT22;18401;49.344;6.240;2023-04-29T05:53:25;11.10;99.90
31837;DHT22;18401;49.344;6.240;2023-04-29T05:55:51;11.20;99.90
31837;DHT22;18401;49.344;6.240;2023-04-29T05:58:16;11.30;99.90
31837;DHT22;18401;49.344;6.240;2023-04-29T06:00:42;11.30;99.90
31837;DHT22;18401;49.344;6.240;2023-04-29T06:03:08;11.40;99.90
31837;DHT22;18401;49.344;6.240;2023-04-29T06:05:35;11.40;99.90
31837;DHT22;18401;49.344;6.240;2023-04-29T06:08:01;11.50;99.90
31837;DHT22;18401;49.344;6.240;2023-04-29T06:10:27;11.60;99.90
31837;DHT22;18401;49.344;6.240;2023-04-29T06:12:52;11.60;99.90
31837;DHT22;18401;49.344;6.240;2023-04-29T06:15:18;11.60;99.90
31837;DHT22;18401;49.344;6.240;2023-04-29T06:17:43;11.60;99.90
31837;DHT22;18401;49.344;6.240;2023-04-29T06:20:09;11.60;99.90
31837;DHT22;18401;49.344;6.240;2023-04-29T06:22:35;11.60;99.90
31837;DHT22;18401;49.344;6.240;2023-04-29T06:25:00;11.60;99.90
31837;DHT22;18401;49.344;6.240;2023-04-29T06:27:26;11.70;99.90
31837;DHT22;18401;49.344;6.240;2023-04-29T06:29:52;11.60;99.90
31837;DHT22;18401;49.344;6.240;2023-04-29T06:32:18;11.50;99.90
31837;DHT22;18401;49.344;6.240;2023-04-29T06:34:43;11.60;99.90
31837;DHT22;18401;49.344;6.240;2023-04-29T06:37:09;11.60;99.90
31837;DHT22;18401;49.344;6.240;2023-04-29T06:39:35;11.60;99.90
31837;DHT22;18401;49.344;6.240;2023-04-29T06:42:00;11.50;99.90
31837;DHT22;18401;49.344;6.240;2023-04-29T06:44:26;11.60;99.90
31837;DHT22;18401;49.344;6.240;2023-04-29T06:46:51;11.60;99.90
31837;DHT22;18401;49.344;6.240;2023-04-29T06:49:17;11.60;99.90
31837;DHT22;18401;49.344;6.240;2023-04-29T06:51:43;11.60;99.90
31837;DHT22;18401;49.344;6.240;2023-04-29T06:54:08;11.60;99.90
31837;DHT22;18401;49.344;6.240;2023-04-29T06:56:34;11.60;99.90
31837;DHT22;18401;49.344;6.240;2023-04-29T06:58:59;11.60;99.90
31837;DHT22;18401;49.344;6.240;2023-04-29T07:01:25;11.70;99.90
31837;DHT22;18401;49.344;6.240;2023-04-29T07:03:50;11.80;99.90
31837;DHT22;18401;49.344;6.240;2023-04-29T07:06:16;11.70;99.90
31837;DHT22;18401;49.344;6.240;2023-04-29T07:08:42;11.80;99.90
31837;DHT22;18401;49.344;6.240;2023-04-29T07:11:07;11.80;99.90
31837;DHT22;18401;49.344;6.240;2023-04-29T07:13:33;11.90;99.90
31837;DHT22;18401;49.344;6.240;2023-04-29T07:15:58;11.90;99.90
31837;DHT22;18401;49.344;6.240;2023-04-29T07:18:24;11.90;99.90
31837;DHT22;18401;49.344;6.240;2023-04-29T07:20:50;12.00;99.90
31837;DHT22;18401;49.344;6.240;2023-04-29T07:23:17;12.10;99.90
31837;DHT22;18401;49.344;6.240;2023-04-29T07:25:42;12.00;99.90
31837;DHT22;18401;49.344;6.240;2023-04-29T07:28:08;12.00;99.90
31837;DHT22;18401;49.344;6.240;2023-04-29T07:30:33;12.00;99.90
31837;DHT22;18401;49.344;6.240;2023-04-29T07:32:59;12.10;99.90
31837;DHT22;18401;49.344;6.240;2023-04-29T07:35:25;12.00;99.90
31837;DHT22;18401;49.344;6.240;2023-04-29T07:37:50;12.10;99.90
31837;DHT22;18401;49.344;6.240;2023-04-29T07:40:16;12.10;99.90
31837;DHT22;18401;49.344;6.240;2023-04-29T07:42:43;12.20;99.90
31837;DHT22;18401;49.344;6.240;2023-04-29T07:45:09;12.20;99.90
31837;DHT22;18401;49.344;6.240;2023-04-29T07:47:34;12.30;99.90
31837;DHT22;18401;49.344;6.240;2023-04-29T07:50:00;12.30;99.90
31837;DHT22;18401;49.344;6.240;2023-04-29T07:52:26;12.30;99.90
31837;DHT22;18401;49.344;6.240;2023-04-29T07:54:52;12.20;99.90
31837;DHT22;18401;49.344;6.240;2023-04-29T07:57:20;12.20;99.90
31837;DHT22;18401;49.344;6.240;2023-04-29T07:59:46;12.20;99.90
31837;DHT22;18401;49.344;6.240;2023-04-29T08:02:11;12.20;99.90
31837;DHT22;18401;49.344;6.240;2023-04-29T08:04:38;12.20;99.90
31837;DHT22;18401;49.344;6.240;2023-04-29T08:07:05;12.30;99.90
31837;DHT22;18401;49.344;6.240;2023-04-29T08:09:31;12.20;99.90
31837;DHT22;18401;49.344;6.240;2023-04-29T08:11:56;12.20;99.90
31837;DHT22;18401;49.344;6.240;2023-04-29T08:14:22;12.20;99.90
31837;DHT22;18401;49.344;6.240;2023-04-29T08:16:47;12.20;99.90
31837;DHT22;18401;49.344;6.240;2023-04-29T08:19:13;12.20;99.90
31837;DHT22;18401;49.344;6.240;2023-04-29T08:21:38;12.10;99.90
31837;DHT22;18401;49.344;6.240;2023-04-29T08:24:04;12.20;99.90
31837;DHT22;18401;49.344;6.240;2023-04-29T08:26:30;12.20;99.90
31837;DHT22;18401;49.344;6.240;2023-04-29T08:28:55;12.10;99.90
31837;DHT22;18401;49.344;6.240;2023-04-29T08:31:21;12.00;99.90
31837;DHT22;18401;49.344;6.240;2023-04-29T08:33:47;11.90;99.90
31837;DHT22;18401;49.344;6.240;2023-04-29T08:36:13;11.90;99.90
31837;DHT22;18401;49.344;6.240;2023-04-29T08:38:39;11.90;99.90
31837;DHT22;18401;49.344;6.240;2023-04-29T08:41:07;12.00;99.90
31837;DHT22;18401;49.344;6.240;2023-04-29T08:43:36;12.10;99.90
31837;DHT22;18401;49.344;6.240;2023-04-29T08:46:02;12.10;99.90
31837;DHT22;18401;49.344;6.240;2023-04-29T08:48:28;12.10;99.90
31837;DHT22;18401;49.344;6.240;2023-04-29T08:50:54;12.10;99.90
31837;DHT22;18401;49.344;6.240;2023-04-29T08:53:22;12.00;99.90
31837;DHT22;18401;49.344;6.240;2023-04-29T08:55:47;12.10;99.90
31837;DHT22;18401;49.344;6.240;2023-04-29T08:58:13;12.00;99.90
31837;DHT22;18401;49.344;6.240;2023-04-29T09:00:40;12.10;99.90
31837;DHT22;18401;49.344;6.240;2023-04-29T09:03:16;12.20;99.90
31837;DHT22;18401;49.344;6.240;2023-04-29T09:05:47;12.30;99.90
31837;DHT22;18401;49.344;6.240;2023-04-29T09:08:14;12.20;99.90
31837;DHT22;18401;49.344;6.240;2023-04-29T09:10:41;12.20;99.90
31837;DHT22;18401;49.344;6.240;2023-04-29T09:13:07;12.20;99.90
31837;DHT22;18401;49.344;6.240;2023-04-29T09:15:36;12.30;99.90
31837;DHT22;18401;49.344;6.240;2023-04-29T09:18:02;12.30;99.90
31837;DHT22;18401;49.344;6.240;2023-04-29T09:20:28;12.30;99.90
31837;DHT22;18401;49.344;6.240;2023-04-29T09:22:57;12.20;99.90
31837;DHT22;18401;49.344;6.240;2023-04-29T09:25:24;12.20;99.90
31837;DHT22;18401;49.344;6.240;2023-04-29T09:27:50;12.30;99.90
31837;DHT22;18401;49.344;6.240;2023-04-29T09:30:16;12.30;99.90
31837;DHT22;18401;49.344;6.240;2023-04-29T09:32:42;12.40;99.90
31837;DHT22;18401;49.344;6.240;2023-04-29T09:35:21;12.40;99.90
31837;DHT22;18401;49.344;6.240;2023-04-29T09:37:48;12.40;99.90
31837;DHT22;18401;49.344;6.240;2023-04-29T09:40:34;12.40;99.90
31837;DHT22;18401;49.344;6.240;2023-04-29T09:42:59;12.30;99.90
31837;DHT22;18401;49.344;6.240;2023-04-29T09:45:34;12.30;99.90
31837;DHT22;18401;49.344;6.240;2023-04-29T09:48:01;12.40;99.90
31837;DHT22;18401;49.344;6.240;2023-04-29T09:50:28;12.40;99.90
31837;DHT22;18401;49.344;6.240;2023-04-29T09:52:53;12.40;99.90
31837;DHT22;18401;49.344;6.240;2023-04-29T09:55:19;12.40;99.90
31837;DHT22;18401;49.344;6.240;2023-04-29T09:57:44;12.50;99.90
31837;DHT22;18401;49.344;6.240;2023-04-29T10:00:11;12.60;99.90
31837;DHT22;18401;49.344;6.240;2023-04-29T10:02:36;12.70;99.90
31837;DHT22;18401;49.344;6.240;2023-04-29T10:05:05;12.80;99.90
31837;DHT22;18401;49.344;6.240;2023-04-29T10:07:31;12.90;99.90
31837;DHT22;18401;49.344;6.240;2023-04-29T10:09:57;12.90;99.90
31837;DHT22;18401;49.344;6.240;2023-04-29T10:12:23;13.00;99.90
31837;DHT22;18401;49.344;6.240;2023-04-29T10:15:02;12.90;99.90
31837;DHT22;18401;49.344;6.240;2023-04-29T10:19:57;12.90;99.90
31837;DHT22;18401;49.344;6.240;2023-04-29T10:22:32;13.00;99.90
31837;DHT22;18401;49.344;6.240;2023-04-29T10:25:00;13.00;99.90
31837;DHT22;18401;49.344;6.240;2023-04-29T10:27:26;13.00;99.90
31837;DHT22;18401;49.344;6.240;2023-04-29T10:29:53;13.00;99.90
31837;DHT22;18401;49.344;6.240;2023-04-29T10:32:21;13.10;99.90
31837;DHT22;18401;49.344;6.240;2023-04-29T10:34:47;13.10;99.90
31837;DHT22;18401;49.344;6.240;2023-04-29T10:37:13;13.20;99.90
31837;DHT22;18401;49.344;6.240;2023-04-29T10:42:14;13.30;99.90
31837;DHT22;18401;49.344;6.240;2023-04-29T10:47:25;13.20;99.90
31837;DHT22;18401;49.344;6.240;2023-04-29T10:50:00;13.20;99.90
31837;DHT22;18401;49.344;6.240;2023-04-29T10:52:26;13.30;99.90
31837;DHT22;18401;49.344;6.240;2023-04-29T10:55:01;13.20;99.90
31837;DHT22;18401;49.344;6.240;2023-04-29T10:57:27;13.00;99.90
31837;DHT22;18401;49.344;6.240;2023-04-29T10:59:54;12.90;99.90
31837;DHT22;18401;49.344;6.240;2023-04-29T11:02:20;13.00;99.90
31837;DHT22;18401;49.344;6.240;2023-04-29T11:07:30;13.30;99.90
31837;DHT22;18401;49.344;6.240;2023-04-29T11:09:56;13.50;99.90
31837;DHT22;18401;49.344;6.240;2023-04-29T11:12:21;13.70;99.90
31837;DHT22;18401;49.344;6.240;2023-04-29T11:14:50;13.90;99.90
31837;DHT22;18401;49.344;6.240;2023-04-29T11:17:16;13.80;99.90
31837;DHT22;18401;49.344;6.240;2023-04-29T11:19:49;13.70;99.90
31837;DHT22;18401;49.344;6.240;2023-04-29T11:27:15;13.70;99.90
31837;DHT22;18401;49.344;6.240;2023-04-29T11:29:42;13.60;99.90
31837;DHT22;18401;49.344;6.240;2023-04-29T11:32:09;13.60;99.90
31837;DHT22;18401;49.344;6.240;2023-04-29T11:34:34;13.60;99.90
31837;DHT22;18401;49.344;6.240;2023-04-29T11:37:00;13.40;99.90
31837;DHT22;18401;49.344;6.240;2023-04-29T11:39:26;13.40;99.90
31837;DHT22;18401;49.344;6.240;2023-04-29T11:42:02;13.50;99.90
31837;DHT22;18401;49.344;6.240;2023-04-29T11:44:28;13.50;99.90
31837;DHT22;18401;49.344;6.240;2023-04-29T11:47:00;13.40;99.90
31837;DHT22;18401;49.344;6.240;2023-04-29T11:49:29;13.30;99.90
31837;DHT22;18401;49.344;6.240;2023-04-29T11:51:55;13.20;99.90
31837;DHT22;18401;49.344;6.240;2023-04-29T11:54:21;13.30;99.90
31837;DHT22;18401;49.344;6.240;2023-04-29T11:56:49;13.40;99.90
31837;DHT22;18401;49.344;6.240;2023-04-29T11:59:18;13.50;99.90
31837;DHT22;18401;49.344;6.240;2023-04-29T12:01:43;13.60;99.90
31837;DHT22;18401;49.344;6.240;2023-04-29T12:04:09;13.60;99.90
31837;DHT22;18401;49.344;6.240;2023-04-29T12:06:34;13.80;99.90
31837;DHT22;18401;49.344;6.240;2023-04-29T12:09:00;14.00;99.90
31837;DHT22;18401;49.344;6.240;2023-04-29T12:11:29;14.00;99.90
31837;DHT22;18401;49.344;6.240;2023-04-29T12:13:55;14.10;99.90
31837;DHT22;18401;49.344;6.240;2023-04-29T12:16:21;14.10;99.90
31837;DHT22;18401;49.344;6.240;2023-04-29T12:18:49;13.90;99.90
31837;DHT22;18401;49.344;6.240;2023-04-29T12:21:15;13.90;99.90
31837;DHT22;18401;49.344;6.240;2023-04-29T12:23:40;13.90;99.90
31837;DHT22;18401;49.344;6.240;2023-04-29T12:26:06;13.90;99.90
31837;DHT22;18401;49.344;6.240;2023-04-29T12:28:32;13.80;99.90
31837;DHT22;18401;49.344;6.240;2023-04-29T12:30:58;13.80;99.90
31837;DHT22;18401;49.344;6.240;2023-04-29T12:33:26;13.80;99.90
31837;DHT22;18401;49.344;6.240;2023-04-29T12:35:56;13.60;99.90
31837;DHT22;18401;49.344;6.240;2023-04-29T12:38:26;13.50;99.90
31837;DHT22;18401;49.344;6.240;2023-04-29T12:40:52;13.30;99.90
31837;DHT22;18401;49.344;6.240;2023-04-29T12:43:17;13.20;99.90
31837;DHT22;18401;49.344;6.240;2023-04-29T12:45:43;13.10;99.90
31837;DHT22;18401;49.344;6.240;2023-04-29T12:48:09;13.20;99.90
31837;DHT22;18401;49.344;6.240;2023-04-29T12:50:36;13.10;99.90
31837;DHT22;18401;49.344;6.240;2023-04-29T12:53:02;13.10;99.90
31837;DHT22;18401;49.344;6.240;2023-04-29T12:55:29;13.10;99.90
31837;DHT22;18401;49.344;6.240;2023-04-29T12:57:55;13.20;99.90
31837;DHT22;18401;49.344;6.240;2023-04-29T13:00:21;13.10;99.90
31837;DHT22;18401;49.344;6.240;2023-04-29T13:02:46;13.10;99.90
31837;DHT22;18401;49.344;6.240;2023-04-29T13:05:13;13.20;99.90
31837;DHT22;18401;49.344;6.240;2023-04-29T13:07:38;13.30;99.90
31837;DHT22;18401;49.344;6.240;2023-04-29T13:10:05;13.30;99.90
31837;DHT22;18401;49.344;6.240;2023-04-29T13:12:31;13.30;99.90
31837;DHT22;18401;49.344;6.240;2023-04-29T13:14:56;13.50;99.90
31837;DHT22;18401;49.344;6.240;2023-04-29T13:17:22;13.70;99.90
31837;DHT22;18401;49.344;6.240;2023-04-29T13:19:48;13.80;99.90
31837;DHT22;18401;49.344;6.240;2023-04-29T13:22:13;13.80;99.90
31837;DHT22;18401;49.344;6.240;2023-04-29T13:24:39;13.80;99.90
31837;DHT22;18401;49.344;6.240;2023-04-29T13:27:04;13.80;99.90
31837;DHT22;18401;49.344;6.240;2023-04-29T13:29:30;13.90;99.90
31837;DHT22;18401;49.344;6.240;2023-04-29T13:31:56;14.00;99.90
31837;DHT22;18401;49.344;6.240;2023-04-29T13:34:21;14.30;99.90
31837;DHT22;18401;49.344;6.240;2023-04-29T13:36:47;14.30;99.90
31837;DHT22;18401;49.344;6.240;2023-04-29T13:39:12;14.70;99.90
31837;DHT22;18401;49.344;6.240;2023-04-29T13:41:38;14.60;99.90
31837;DHT22;18401;49.344;6.240;2023-04-29T13:44:03;14.70;99.90
31837;DHT22;18401;49.344;6.240;2023-04-29T13:46:30;14.80;99.90
31837;DHT22;18401;49.344;6.240;2023-04-29T13:48:56;14.70;99.90
31837;DHT22;18401;49.344;6.240;2023-04-29T13:51:22;14.80;99.90
31837;DHT22;18401;49.344;6.240;2023-04-29T13:53:47;14.80;99.90
31837;DHT22;18401;49.344;6.240;2023-04-29T13:56:13;14.70;99.90
31837;DHT22;18401;49.344;6.240;2023-04-29T13:58:38;14.80;99.90
31837;DHT22;18401;49.344;6.240;2023-04-29T14:01:06;14.90;99.90
31837;DHT22;18401;49.344;6.240;2023-04-29T14:03:31;15.20;99.90
31837;DHT22;18401;49.344;6.240;2023-04-29T14:05:57;15.20;99.90
31837;DHT22;18401;49.344;6.240;2023-04-29T14:08:22;15.00;99.90
31837;DHT22;18401;49.344;6.240;2023-04-29T14:10:48;15.20;99.90
31837;DHT22;18401;49.344;6.240;2023-04-29T14:13:13;15.20;99.90
31837;DHT22;18401;49.344;6.240;2023-04-29T14:15:39;15.10;99.90
31837;DHT22;18401;49.344;6.240;2023-04-29T14:18:05;15.00;99.90
31837;DHT22;18401;49.344;6.240;2023-04-29T14:20:32;15.10;99.90
31837;DHT22;18401;49.344;6.240;2023-04-29T14:22:59;15.10;99.90
31837;DHT22;18401;49.344;6.240;2023-04-29T14:25:25;14.90;99.90
31837;DHT22;18401;49.344;6.240;2023-04-29T14:27:50;14.80;99.90
31837;DHT22;18401;49.344;6.240;2023-04-29T14:30:16;14.90;99.90
31837;DHT22;18401;49.344;6.240;2023-04-29T14:32:42;15.10;99.90
31837;DHT22;18401;49.344;6.240;2023-04-29T14:35:08;15.00;99.90
31837;DHT22;18401;49.344;6.240;2023-04-29T14:37:33;14.80;99.90
31837;DHT22;18401;49.344;6.240;2023-04-29T14:39:59;14.90;99.90
31837;DHT22;18401;49.344;6.240;2023-04-29T14:42:25;14.80;99.90
31837;DHT22;18401;49.344;6.240;2023-04-29T14:44:50;14.60;99.90
31837;DHT22;18401;49.344;6.240;2023-04-29T14:47:16;14.60;99.90
31837;DHT22;18401;49.344;6.240;2023-04-29T14:49:42;14.40;99.90
31837;DHT22;18401;49.344;6.240;2023-04-29T14:52:08;14.30;99.90
31837;DHT22;18401;49.344;6.240;2023-04-29T14:54:34;14.20;99.90
31837;DHT22;18401;49.344;6.240;2023-04-29T14:57:00;14.20;99.90
31837;DHT22;18401;49.344;6.240;2023-04-29T14:59:26;14.30;99.90
31837;DHT22;18401;49.344;6.240;2023-04-29T15:01:54;14.30;99.90
31837;DHT22;18401;49.344;6.240;2023-04-29T15:04:20;14.10;99.90
31837;DHT22;18401;49.344;6.240;2023-04-29T15:06:46;14.00;99.90
31837;DHT22;18401;49.344;6.240;2023-04-29T15:09:11;13.90;99.90
31837;DHT22;18401;49.344;6.240;2023-04-29T15:11:37;13.90;99.90
31837;DHT22;18401;49.344;6.240;2023-04-29T15:14:03;13.90;99.90
31837;DHT22;18401;49.344;6.240;2023-04-29T15:16:28;13.90;99.90
31837;DHT22;18401;49.344;6.240;2023-04-29T15:18:54;14.10;99.90
31837;DHT22;18401;49.344;6.240;2023-04-29T15:21:20;14.10;99.90
31837;DHT22;18401;49.344;6.240;2023-04-29T15:23:46;14.10;99.90
31837;DHT22;18401;49.344;6.240;2023-04-29T15:26:11;14.20;99.90
31837;DHT22;18401;49.344;6.240;2023-04-29T15:28:37;14.20;99.90
31837;DHT22;18401;49.344;6.240;2023-04-29T15:31:03;14.20;99.90
31837;DHT22;18401;49.344;6.240;2023-04-29T15:33:30;14.30;99.90
31837;DHT22;18401;49.344;6.240;2023-04-29T15:35:55;14.20;99.90
31837;DHT22;18401;49.344;6.240;2023-04-29T15:38:21;13.90;99.90
31837;DHT22;18401;49.344;6.240;2023-04-29T15:40:46;13.90;99.90
31837;DHT22;18401;49.344;6.240;2023-04-29T15:43:12;13.80;99.90
31837;DHT22;18401;49.344;6.240;2023-04-29T15:45:37;13.70;99.90
31837;DHT22;18401;49.344;6.240;2023-04-29T15:48:03;13.50;99.90